Christialou — FI8820 — position and weather

sailwx.info

Track history (hours):
 
Tides and Currents Weather Stations Pressure Air Temp Water Temp Dewpoint Dewpoint Depression Visibility Wind Speed Wind Dir Waves Ship Positions

Christialou

Last reported at 2018-Feb-21 12:42 UTC. Time now 2018-Feb-21 20:35 UTC.
Position N 47°44' W 003°22'.

Length 9 m.

Type: Fishing. MMSI: 227629670.

Date/timePositionNaut miles runAvg speedWind from/ knotsBaromVisibWave heightAir tempDewpointWater temp
2018-Feb-21 12:42N 47°44' W 003°22'0 0.2
2018-Feb-21 12:28N 47°44' W 003°22'1 3.1
2018-Feb-21 12:01N 47°42' W 003°22'4 6.8
2018-Feb-21 11:30N 47°41' W 003°27'4 0.6
2018-Feb-21 05:06N 47°37' W 003°30'0 1.4
2018-Feb-21 04:47N 47°37' W 003°29'3 3.7
2018-Feb-21 03:52N 47°40' W 003°29'3 7.6
2018-Feb-21 03:29N 47°41' W 003°25'3 6.4
2018-Feb-21 03:00N 47°44' W 003°22'0 0.0
2018-Feb-20 12:41N 47°44' W 003°22'0 0.2
2018-Feb-20 12:28N 47°44' W 003°22'2 3.4
2018-Feb-20 12:00N 47°42' W 003°22'5 0.5
2018-Feb-20 03:38N 47°40' W 003°28'1 7.7
2018-Feb-20 03:30N 47°41' W 003°27'4 7.2
2018-Feb-20 02:58N 47°43' W 003°22'1 0.1
2018-Feb-19 13:02N 47°44' W 003°22'0 0.7
2018-Feb-19 12:59N 47°44' W 003°22'1 1.9
2018-Feb-19 12:30N 47°43' W 003°22'4 7.3
2018-Feb-19 11:58N 47°41' W 003°27'5 3.1
2018-Feb-19 10:17N 47°36' W 003°30'1 2.0
2018-Feb-19 09:56N 47°35' W 003°30'0 0.1
2018-Feb-19 09:29N 47°35' W 003°30'1 0.2
2018-Feb-19 04:46N 47°36' W 003°30'5 4.2
2018-Feb-19 03:40N 47°40' W 003°28'1 7.7
2018-Feb-19 03:30N 47°41' W 003°26'4 7.0
2018-Feb-19 03:00N 47°43' W 003°22'1 0.1
2018-Feb-18 12:37N 47°44' W 003°22'0 0.3
2018-Feb-18 12:29N 47°44' W 003°22'0 0.2
2018-Feb-18 11:59N 47°44' W 003°22'3 6.3
2018-Feb-18 11:30N 47°41' W 003°25'7 3.4
2018-Feb-18 09:19N 47°36' W 003°33'0 0.6
2018-Feb-18 08:58N 47°37' W 003°33'2 0.6
2018-Feb-18 05:08N 47°37' W 003°30'1 2.7
2018-Feb-18 04:55N 47°37' W 003°29'3 2.8
2018-Feb-18 03:41N 47°40' W 003°29'2 7.5
2018-Feb-18 03:29N 47°41' W 003°27'3 7.2
2018-Feb-18 03:00N 47°42' W 003°22'1 0.1
2018-Feb-17 12:58N 47°44' W 003°22'1 1.5
2018-Feb-17 12:30N 47°43' W 003°22'5 0.6
2018-Feb-17 02:56N 47°40' W 003°29'4 8.2
2018-Feb-17 02:31N 47°42' W 003°24'3 0.2
2018-Feb-16 12:53N 47°44' W 003°22'0 0.1
2018-Feb-16 12:29N 47°44' W 003°22'3 7.1
2018-Feb-16 11:59N 47°41' W 003°25'6 2.6
2018-Feb-16 09:33N 47°36' W 003°31'0 0.9
2018-Feb-16 09:22N 47°36' W 003°30'1 1.2
2018-Feb-16 08:55N 47°36' W 003°31'1 1.3
2018-Feb-16 08:30N 47°35' W 003°31'5 1.0
2018-Feb-16 03:14N 47°40' W 003°28'2 8.0
2018-Feb-16 03:00N 47°41' W 003°26'3 6.8
2018-Feb-16 02:30N 47°43' W 003°22'1 0.1
2018-Feb-15 13:24N 47°44' W 003°22'1 3.5
2018-Feb-15 13:00N 47°42' W 003°22'4 1.7
2018-Feb-15 10:24N 47°40' W 003°27'1 0.3
2018-Feb-15 06:44N 47°41' W 003°29'1 3.6
2018-Feb-15 06:25N 47°40' W 003°27'1 2.2
2018-Feb-15 05:57N 47°40' W 003°29'1 0.7
2018-Feb-15 04:54N 47°40' W 003°28'1 1.5
2018-Feb-15 04:28N 47°40' W 003°27'3 7.2
2018-Feb-15 04:00N 47°42' W 003°23'2 0.1
2018-Feb-14 03:42N 47°44' W 003°22'1 6.6
2018-Feb-14 03:30N 47°42' W 003°22'1 2.4
2018-Feb-14 03:00N 47°44' W 003°22'0 0.0
2018-Feb-12 12:49N 47°44' W 003°22'0 0.1
2018-Feb-12 12:30N 47°44' W 003°22'4 7.4
2018-Feb-12 11:58N 47°41' W 003°26'4 0.9
2018-Feb-12 07:39N 47°41' W 003°31'0 0.8
2018-Feb-12 07:21N 47°41' W 003°31'2 4.8
2018-Feb-12 06:51N 47°40' W 003°28'0 0.7
2018-Feb-12 06:22N 47°40' W 003°28'0 0.7
2018-Feb-12 05:52N 47°39' W 003°28'3 1.5
2018-Feb-12 04:08N 47°42' W 003°30'1 5.2
2018-Feb-12 03:53N 47°41' W 003°28'3 7.1
2018-Feb-12 03:30N 47°41' W 003°24'3 5.3
2018-Feb-12 03:00N 47°44' W 003°22'  
Track history (hours):
 
Tides and Currents Weather Stations Pressure Air Temp Water Temp Dewpoint Dewpoint Depression Visibility Wind Speed Wind Dir Waves Ship Positions

Christialou

Last reported at 2018-Feb-21 12:42 UTC. Time now 2018-Feb-21 20:35 UTC.
Position N 47°44' W 003°22'.

Length 9 m.

Type: Fishing. MMSI: 227629670.

Date/timePositionNaut miles runAvg speedWind from/ knotsBaromVisibWave heightAir tempDewpointWater temp
2018-Feb-21 12:42N 47°44' W 003°22'0 0.2
2018-Feb-21 12:28N 47°44' W 003°22'1 3.1
2018-Feb-21 12:01N 47°42' W 003°22'4 6.8
2018-Feb-21 11:30N 47°41' W 003°27'4 0.6
2018-Feb-21 05:06N 47°37' W 003°30'0 1.4
2018-Feb-21 04:47N 47°37' W 003°29'3 3.7
2018-Feb-21 03:52N 47°40' W 003°29'3 7.6
2018-Feb-21 03:29N 47°41' W 003°25'3 6.4
2018-Feb-21 03:00N 47°44' W 003°22'0 0.0
2018-Feb-20 12:41N 47°44' W 003°22'0 0.2
2018-Feb-20 12:28N 47°44' W 003°22'2 3.4
2018-Feb-20 12:00N 47°42' W 003°22'5 0.5
2018-Feb-20 03:38N 47°40' W 003°28'1 7.7
2018-Feb-20 03:30N 47°41' W 003°27'4 7.2
2018-Feb-20 02:58N 47°43' W 003°22'1 0.1
2018-Feb-19 13:02N 47°44' W 003°22'0 0.7
2018-Feb-19 12:59N 47°44' W 003°22'1 1.9
2018-Feb-19 12:30N 47°43' W 003°22'4 7.3
2018-Feb-19 11:58N 47°41' W 003°27'5 3.1
2018-Feb-19 10:17N 47°36' W 003°30'1 2.0
2018-Feb-19 09:56N 47°35' W 003°30'0 0.1
2018-Feb-19 09:29N 47°35' W 003°30'1 0.2
2018-Feb-19 04:46N 47°36' W 003°30'5 4.2
2018-Feb-19 03:40N 47°40' W 003°28'1 7.7
2018-Feb-19 03:30N 47°41' W 003°26'4 7.0
2018-Feb-19 03:00N 47°43' W 003°22'1 0.1
2018-Feb-18 12:37N 47°44' W 003°22'0 0.3
2018-Feb-18 12:29N 47°44' W 003°22'0 0.2
2018-Feb-18 11:59N 47°44' W 003°22'3 6.3
2018-Feb-18 11:30N 47°41' W 003°25'7 3.4
2018-Feb-18 09:19N 47°36' W 003°33'0 0.6
2018-Feb-18 08:58N 47°37' W 003°33'2 0.6
2018-Feb-18 05:08N 47°37' W 003°30'1 2.7
2018-Feb-18 04:55N 47°37' W 003°29'3 2.8
2018-Feb-18 03:41N 47°40' W 003°29'2 7.5
2018-Feb-18 03:29N 47°41' W 003°27'3 7.2
2018-Feb-18 03:00N 47°42' W 003°22'1 0.1
2018-Feb-17 12:58N 47°44' W 003°22'1 1.5
2018-Feb-17 12:30N 47°43' W 003°22'5 0.6
2018-Feb-17 02:56N 47°40' W 003°29'4 8.2
2018-Feb-17 02:31N 47°42' W 003°24'3 0.2
2018-Feb-16 12:53N 47°44' W 003°22'0 0.1
2018-Feb-16 12:29N 47°44' W 003°22'3 7.1
2018-Feb-16 11:59N 47°41' W 003°25'6 2.6
2018-Feb-16 09:33N 47°36' W 003°31'0 0.9
2018-Feb-16 09:22N 47°36' W 003°30'1 1.2
2018-Feb-16 08:55N 47°36' W 003°31'1 1.3
2018-Feb-16 08:30N 47°35' W 003°31'5 1.0
2018-Feb-16 03:14N 47°40' W 003°28'2 8.0
2018-Feb-16 03:00N 47°41' W 003°26'3 6.8
2018-Feb-16 02:30N 47°43' W 003°22'1 0.1
2018-Feb-15 13:24N 47°44' W 003°22'1 3.5
2018-Feb-15 13:00N 47°42' W 003°22'4 1.7
2018-Feb-15 10:24N 47°40' W 003°27'1 0.3
2018-Feb-15 06:44N 47°41' W 003°29'1 3.6
2018-Feb-15 06:25N 47°40' W 003°27'1 2.2
2018-Feb-15 05:57N 47°40' W 003°29'1 0.7
2018-Feb-15 04:54N 47°40' W 003°28'1 1.5
2018-Feb-15 04:28N 47°40' W 003°27'3 7.2
2018-Feb-15 04:00N 47°42' W 003°23'2 0.1
2018-Feb-14 03:42N 47°44' W 003°22'1 6.6
2018-Feb-14 03:30N 47°42' W 003°22'1 2.4
2018-Feb-14 03:00N 47°44' W 003°22'0 0.0
2018-Feb-12 12:49N 47°44' W 003°22'0 0.1
2018-Feb-12 12:30N 47°44' W 003°22'4 7.4
2018-Feb-12 11:58N 47°41' W 003°26'4 0.9
2018-Feb-12 07:39N 47°41' W 003°31'0 0.8
2018-Feb-12 07:21N 47°41' W 003°31'2 4.8
2018-Feb-12 06:51N 47°40' W 003°28'0 0.7
2018-Feb-12 06:22N 47°40' W 003°28'0 0.7
2018-Feb-12 05:52N 47°39' W 003°28'3 1.5
2018-Feb-12 04:08N 47°42' W 003°30'1 5.2
2018-Feb-12 03:53N 47°41' W 003°28'3 7.1
2018-Feb-12 03:30N 47°41' W 003°24'3 5.3
2018-Feb-12 03:00N 47°44' W 003°22'  

Dump ship's entire track history